createdAt,value
2018-12-29T00:00:04.709Z,103417.41
2018-12-29T00:01:05.187Z,103417.72
2018-12-29T00:02:05.653Z,103418.48
2018-12-29T00:03:06.018Z,103418.77
2018-12-29T00:04:06.507Z,103419.03
2018-12-29T00:04:16.533Z,103435.27
2018-12-29T00:05:17.968Z,103434.70
2018-12-29T00:06:18.827Z,103434.60
2018-12-29T00:07:21.575Z,103434.38
2018-12-29T00:08:18.823Z,103433.81
2018-12-29T00:09:20.230Z,103433.31
2018-12-29T00:10:20.762Z,103432.15
2018-12-29T00:11:21.227Z,103431.16
2018-12-29T00:12:21.808Z,103429.66
2018-12-29T00:13:22.132Z,103428.66
2018-12-29T00:14:22.550Z,103427.99
2018-12-29T00:15:22.946Z,103426.83
2018-12-29T00:16:23.374Z,103426.00
2018-12-29T00:17:23.851Z,103425.17
2018-12-29T00:18:24.614Z,103424.17
2018-12-29T00:19:24.967Z,103423.61
2018-12-29T00:20:25.321Z,103422.78
2018-12-29T00:21:25.771Z,103422.61
2018-12-29T00:22:26.181Z,103422.45
2018-12-29T00:23:26.634Z,103421.34
2018-12-29T00:24:27.040Z,103420.58
2018-12-29T00:25:27.512Z,103419.41
2018-12-29T00:26:27.998Z,103419.14
2018-12-29T00:27:27.584Z,103419.05
2018-12-29T00:28:29.017Z,103419.14
2018-12-29T00:29:29.599Z,103419.54
2018-12-29T00:30:30.008Z,103419.27
2018-12-29T00:31:30.358Z,103418.39
2018-12-29T00:32:31.020Z,103418.30
2018-12-29T00:33:31.455Z,103418.23
2018-12-29T00:34:31.836Z,103417.69
2018-12-29T00:35:32.209Z,103416.92
2018-12-29T00:36:32.652Z,103416.92
2018-12-29T00:37:32.461Z,103416.76
2018-12-29T00:38:33.785Z,103417.69
2018-12-29T00:39:34.166Z,103418.45
2018-12-29T00:40:34.632Z,103418.89
2018-12-29T00:41:35.056Z,103419.22
2018-12-29T00:42:35.497Z,103419.30
2018-12-29T00:43:35.948Z,103419.30
2018-12-29T00:44:36.365Z,103419.06
2018-12-29T00:45:36.789Z,103418.83
2018-12-29T00:46:37.319Z,103418.27
2018-12-29T00:47:37.629Z,103418.34
2018-12-29T00:48:37.953Z,103418.77
2018-12-29T00:49:38.508Z,103418.70
2018-12-29T00:50:39.436Z,103418.97
2018-12-29T00:51:38.733Z,103419.64
2018-12-29T00:52:40.331Z,103419.48
2018-12-29T00:52:48.618Z,103421.77
2018-12-29T00:53:49.960Z,103421.59
2018-12-29T00:54:50.425Z,103420.60
2018-12-29T00:55:50.082Z,103420.10
2018-12-29T00:56:51.437Z,103420.10
2018-12-29T00:57:51.958Z,103419.27
2018-12-29T00:58:52.707Z,103418.38
2018-12-29T00:59:53.927Z,103417.44
2018-12-29T01:00:52.682Z,103416.51
2018-12-29T01:01:54.221Z,103416.34
2018-12-29T01:02:54.658Z,103415.24
2018-12-29T01:03:55.061Z,103414.74
2018-12-29T01:04:55.587Z,103414.34
2018-12-29T01:05:56.067Z,103413.19
2018-12-29T01:06:56.680Z,103413.05
2018-12-29T01:07:57.305Z,103412.39
2018-12-29T01:08:57.735Z,103412.00
2018-12-29T01:09:58.159Z,103411.20
2018-12-29T01:10:58.573Z,103410.45
2018-12-29T01:11:59.261Z,103409.72
2018-12-29T01:12:59.695Z,103409.09
2018-12-29T01:14:00.118Z,103408.16
2018-12-29T01:15:00.780Z,103407.70
2018-12-29T01:16:01.248Z,103407.53
2018-12-29T01:17:01.586Z,103407.48
2018-12-29T01:18:01.880Z,103407.28
2018-12-29T01:19:02.274Z,103406.89
2018-12-29T01:20:02.692Z,103406.39
2018-12-29T01:21:03.067Z,103406.86
2018-12-29T01:22:03.424Z,103407.97
2018-12-29T01:23:03.952Z,103409.23
2018-12-29T01:24:04.439Z,103410.41
2018-12-29T01:25:04.868Z,103411.77
2018-12-29T01:26:05.612Z,103412.87
2018-12-29T01:27:06.029Z,103413.53
2018-12-29T01:28:06.358Z,103414.36
2018-12-29T01:29:06.731Z,103415.42
2018-12-29T01:30:07.112Z,103416.05
2018-12-29T01:31:07.533Z,103417.31
2018-12-29T01:32:07.891Z,103418.05
2018-12-29T01:33:08.362Z,103418.34
2018-12-29T01:34:08.822Z,103419.83
2018-12-29T01:35:08.308Z,103420.66
2018-12-29T01:36:10.003Z,103422.12
2018-12-29T01:37:10.506Z,103423.52
2018-12-29T01:38:11.062Z,103424.61
2018-12-29T01:39:11.506Z,103425.34
2018-12-29T01:39:19.881Z,103439.96
2018-12-29T01:40:21.278Z,103439.70
2018-12-29T01:41:21.625Z,103439.03
2018-12-29T01:42:22.156Z,103438.97
2018-12-29T01:43:22.642Z,103437.97
2018-12-29T01:44:23.136Z,103437.30
2018-12-29T01:45:23.539Z,103437.30
2018-12-29T01:46:24.142Z,103436.41
2018-12-29T01:47:24.848Z,103435.78
2018-12-29T01:48:25.506Z,103434.52
2018-12-29T01:49:25.880Z,103433.89
2018-12-29T01:50:26.795Z,103433.63
2018-12-29T01:51:27.418Z,103433.67
2018-12-29T01:52:27.881Z,103433.44
2018-12-29T01:53:28.333Z,103432.84
2018-12-29T01:54:27.833Z,103432.38
2018-12-29T01:55:29.225Z,103432.38
2018-12-29T01:56:29.707Z,103432.16
2018-12-29T01:57:29.125Z,103431.53
2018-12-29T01:58:30.556Z,103430.70
2018-12-29T01:59:31.139Z,103430.51
2018-12-29T02:00:31.580Z,103430.71
2018-12-29T02:01:32.063Z,103430.05
2018-12-29T02:02:32.529Z,103429.83
2018-12-29T02:03:32.980Z,103429.27
2018-12-29T02:04:33.384Z,103428.44
2018-12-29T02:05:33.759Z,103427.80
2018-12-29T02:06:34.186Z,103428.41
2018-12-29T02:07:34.677Z,103427.95
2018-12-29T02:08:35.301Z,103427.89
2018-12-29T02:09:35.641Z,103427.06
2018-12-29T02:10:36.005Z,103426.77
2018-12-29T02:11:36.432Z,103426.00
2018-12-29T02:12:36.864Z,103425.27
2018-12-29T02:13:38.354Z,103425.54
2018-12-29T02:14:37.839Z,103424.98
2018-12-29T02:15:38.547Z,103425.25
2018-12-29T02:16:38.966Z,103425.19
2018-12-29T02:17:39.282Z,103425.69
2018-12-29T02:18:39.898Z,103426.19
2018-12-29T02:19:40.269Z,103426.29
2018-12-29T02:20:40.708Z,103426.56
2018-12-29T02:21:41.357Z,103427.03
2018-12-29T02:22:42.105Z,103426.70
2018-12-29T02:23:42.537Z,103427.14
2018-12-29T02:24:44.146Z,103427.58
2018-12-29T02:25:43.674Z,103428.38
2018-12-29T02:25:52.061Z,103440.78
2018-12-29T02:26:53.472Z,103439.85
2018-12-29T02:27:53.826Z,103439.45
2018-12-29T02:28:54.312Z,103438.79
2018-12-29T02:29:54.705Z,103438.73
2018-12-29T02:30:55.117Z,103438.06
2018-12-29T02:31:55.664Z,103437.50
2018-12-29T02:32:55.685Z,103436.73
2018-12-29T02:33:56.344Z,103435.41
2018-12-29T02:34:56.800Z,103434.34
2018-12-29T02:35:57.512Z,103433.17
2018-12-29T02:36:58.038Z,103431.61
2018-12-29T02:37:58.609Z,103429.95
2018-12-29T02:38:59.039Z,103429.13
2018-12-29T02:39:59.392Z,103427.89
2018-12-29T02:41:00.037Z,103427.00
2018-12-29T02:42:00.434Z,103426.00
2018-12-29T02:43:00.850Z,103424.51
2018-12-29T02:44:01.190Z,103423.78
2018-12-29T02:45:01.593Z,103422.72
2018-12-29T02:46:02.100Z,103421.28
2018-12-29T02:47:02.999Z,103420.66
2018-12-29T02:48:03.365Z,103419.59
2018-12-29T02:49:03.764Z,103418.77
2018-12-29T02:50:04.752Z,103418.47
2018-12-29T02:51:04.147Z,103417.81
2018-12-29T02:52:05.607Z,103416.91
2018-12-29T02:53:06.126Z,103415.75
2018-12-29T02:54:06.808Z,103414.85
2018-12-29T02:55:07.233Z,103413.76
2018-12-29T02:56:07.650Z,103413.09
2018-12-29T02:57:08.217Z,103411.59
2018-12-29T02:58:08.519Z,103410.70
2018-12-29T02:59:08.879Z,103409.70
2018-12-29T03:00:09.365Z,103408.93
2018-12-29T03:01:09.899Z,103407.93
2018-12-29T03:02:10.275Z,103407.10
2018-12-29T03:03:10.919Z,103405.67
2018-12-29T03:04:11.566Z,103404.84
2018-12-29T03:05:11.975Z,103404.27
2018-12-29T03:06:12.421Z,103403.45
2018-12-29T03:07:13.842Z,103403.11
2018-12-29T03:08:13.219Z,103402.05
2018-12-29T03:09:13.243Z,103401.16
2018-12-29T03:10:13.722Z,103400.72
2018-12-29T03:11:14.224Z,103399.99
2018-12-29T03:12:14.720Z,103399.76
2018-12-29T03:12:23.116Z,103391.38
2018-12-29T03:13:23.764Z,103390.98
2018-12-29T03:14:24.570Z,103391.20
2018-12-29T03:15:24.983Z,103390.88
2018-12-29T03:16:25.351Z,103390.22
2018-12-29T03:17:25.855Z,103389.55
2018-12-29T03:18:26.476Z,103389.31
2018-12-29T03:19:26.869Z,103388.15
2018-12-29T03:20:27.572Z,103388.16
2018-12-29T03:21:28.113Z,103387.66
2018-12-29T03:22:28.500Z,103386.98
2018-12-29T03:23:28.648Z,103386.76
2018-12-29T03:24:29.295Z,103386.46
2018-12-29T03:25:29.723Z,103385.86
2018-12-29T03:26:30.124Z,103385.40
2018-12-29T03:27:30.572Z,103385.23
2018-12-29T03:28:31.018Z,103384.77
2018-12-29T03:29:31.538Z,103383.55
2018-12-29T03:30:31.998Z,103383.61
2018-12-29T03:31:32.445Z,103382.71
2018-12-29T03:32:32.933Z,103381.78
2018-12-29T03:33:33.386Z,103381.61
2018-12-29T03:34:33.819Z,103381.11
2018-12-29T03:35:34.309Z,103380.88
2018-12-29T03:36:34.607Z,103380.05
2018-12-29T03:37:35.307Z,103379.95
2018-12-29T03:38:36.041Z,103379.13
2018-12-29T03:39:36.375Z,103379.16
2018-12-29T03:40:36.700Z,103379.06
2018-12-29T03:41:37.211Z,103378.83
2018-12-29T03:42:37.673Z,103378.70
2018-12-29T03:43:38.139Z,103378.44
2018-12-29T03:44:37.486Z,103378.30
2018-12-29T03:45:38.672Z,103378.07
2018-12-29T03:46:39.079Z,103378.41
2018-12-29T03:47:39.718Z,103378.77
2018-12-29T03:48:40.123Z,103379.11
2018-12-29T03:49:40.627Z,103379.45
2018-12-29T03:50:41.193Z,103379.98
2018-12-29T03:51:42.011Z,103380.65
2018-12-29T03:52:42.422Z,103381.61
2018-12-29T03:53:42.891Z,103382.11
2018-12-29T03:54:43.370Z,103382.55
2018-12-29T03:55:43.797Z,103383.32
2018-12-29T03:56:44.362Z,103383.80
2018-12-29T03:57:44.896Z,103384.23
2018-12-29T03:58:45.400Z,103384.83
2018-12-29T03:58:53.447Z,103398.80
2018-12-29T03:59:54.929Z,103398.39
2018-12-29T04:00:55.333Z,103398.56
2018-12-29T04:01:56.106Z,103398.12
2018-12-29T04:02:56.755Z,103398.19
2018-12-29T04:03:57.111Z,103397.95
2018-12-29T04:04:57.647Z,103397.92
2018-12-29T04:05:58.466Z,103398.08
2018-12-29T04:06:57.804Z,103398.55
2018-12-29T04:07:59.360Z,103398.61
2018-12-29T04:08:59.808Z,103399.28
2018-12-29T04:10:00.268Z,103399.61
2018-12-29T04:10:59.704Z,103399.28
2018-12-29T04:12:01.299Z,103399.51
2018-12-29T04:13:01.741Z,103399.58
2018-12-29T04:14:02.431Z,103400.00
2018-12-29T04:15:02.415Z,103400.41
2018-12-29T04:16:02.807Z,103400.63
2018-12-29T04:17:03.127Z,103401.80
2018-12-29T04:18:03.573Z,103402.23
2018-12-29T04:19:04.031Z,103403.23
2018-12-29T04:20:04.612Z,103404.12
2018-12-29T04:21:05.081Z,103404.89
2018-12-29T04:22:05.706Z,103404.73
2018-12-29T04:23:06.131Z,103405.33
2018-12-29T04:24:06.524Z,103406.00
2018-12-29T04:25:07.043Z,103406.33
2018-12-29T04:26:07.823Z,103406.83
2018-12-29T04:27:08.186Z,103407.39
2018-12-29T04:28:08.682Z,103407.89
2018-12-29T04:29:09.102Z,103407.89
2018-12-29T04:30:09.563Z,103407.99
2018-12-29T04:31:09.968Z,103407.33
2018-12-29T04:32:10.268Z,103407.50
2018-12-29T04:33:10.790Z,103407.16
2018-12-29T04:34:11.031Z,103407.27
2018-12-29T04:35:11.456Z,103407.43
2018-12-29T04:36:11.835Z,103407.13
2018-12-29T04:37:12.160Z,103407.14
2018-12-29T04:38:12.425Z,103407.17
2018-12-29T04:39:13.297Z,103406.77
2018-12-29T04:40:13.590Z,103406.51
2018-12-29T04:41:13.823Z,103406.11
2018-12-29T04:42:14.622Z,103405.88
2018-12-29T04:43:14.893Z,103404.92
2018-12-29T04:44:15.169Z,103404.86
2018-12-29T04:45:15.523Z,103404.46
2018-12-29T04:45:24.435Z,103394.92
2018-12-29T04:46:23.856Z,103393.98
2018-12-29T04:47:25.167Z,103394.05
2018-12-29T04:48:25.447Z,103393.95
2018-12-29T04:49:25.837Z,103393.05
2018-12-29T04:50:26.088Z,103392.95
2018-12-29T04:51:26.322Z,103393.12
2018-12-29T04:52:26.767Z,103392.68
2018-12-29T04:53:27.137Z,103392.84
2018-12-29T04:54:27.975Z,103392.74
2018-12-29T04:55:28.373Z,103392.27
2018-12-29T04:56:28.632Z,103392.44
2018-12-29T04:57:28.948Z,103392.17
2018-12-29T04:58:29.532Z,103392.30
2018-12-29T04:59:29.843Z,103392.53
2018-12-29T05:00:30.353Z,103392.59
2018-12-29T05:01:30.739Z,103392.32
2018-12-29T05:02:31.307Z,103392.55
2018-12-29T05:03:31.561Z,103392.52
2018-12-29T05:04:31.803Z,103392.45
2018-12-29T05:05:32.754Z,103391.85
2018-12-29T05:06:33.095Z,103391.52
2018-12-29T05:07:33.461Z,103391.36
2018-12-29T05:08:33.731Z,103390.52
2018-12-29T05:09:33.970Z,103390.69
2018-12-29T05:10:34.611Z,103390.35
2018-12-29T05:11:34.841Z,103389.69
2018-12-29T05:12:35.125Z,103389.02
2018-12-29T05:13:35.384Z,103388.25
2018-12-29T05:14:35.709Z,103388.09
2018-12-29T05:15:35.937Z,103387.75
2018-12-29T05:16:36.238Z,103387.09
2018-12-29T05:17:36.843Z,103386.69
2018-12-29T05:18:37.284Z,103386.42
2018-12-29T05:19:37.542Z,103386.20
2018-12-29T05:20:37.898Z,103386.03
2018-12-29T05:21:38.387Z,103385.53
2018-12-29T05:22:39.035Z,103385.53
2018-12-29T05:23:39.305Z,103386.13
2018-12-29T05:24:39.690Z,103386.63
2018-12-29T05:25:39.962Z,103386.96
2018-12-29T05:26:41.236Z,103387.80
2018-12-29T05:27:40.508Z,103388.46
2018-12-29T05:28:43.780Z,103389.02
2018-12-29T05:29:40.412Z,103390.19
2018-12-29T05:30:41.816Z,103390.69
2018-12-29T05:30:50.808Z,103407.27
2018-12-29T05:31:51.051Z,103407.16
2018-12-29T05:32:51.536Z,103406.66
2018-12-29T05:33:51.835Z,103406.77
2018-12-29T05:34:52.226Z,103406.42
2018-12-29T05:35:52.725Z,103406.77
2018-12-29T05:36:53.038Z,103406.09
2018-12-29T05:37:53.638Z,103405.27
2018-12-29T05:38:54.026Z,103404.27
2018-12-29T05:39:55.379Z,103403.53
2018-12-29T05:40:54.636Z,103403.14
2018-12-29T05:41:54.902Z,103403.31
2018-12-29T05:42:55.225Z,103402.91
2018-12-29T05:43:55.848Z,103402.52
2018-12-29T05:44:55.028Z,103402.41
2018-12-29T05:45:56.274Z,103402.18
2018-12-29T05:46:56.535Z,103402.02
2018-12-29T05:47:56.774Z,103401.78
2018-12-29T05:48:57.400Z,103401.52
2018-12-29T05:49:57.759Z,103401.45
2018-12-29T05:50:58.082Z,103401.12
2018-12-29T05:51:57.302Z,103400.95
2018-12-29T05:52:58.562Z,103400.79
2018-12-29T05:53:58.961Z,103400.79
2018-12-29T05:54:59.211Z,103400.29
2018-12-29T05:55:59.466Z,103400.29
2018-12-29T05:57:00.398Z,103400.05
2018-12-29T05:57:59.642Z,103399.22
2018-12-29T05:58:59.933Z,103398.98
2018-12-29T06:00:01.630Z,103398.66
2018-12-29T06:01:01.972Z,103397.89
2018-12-29T06:02:02.634Z,103397.23
2018-12-29T06:03:03.070Z,103396.83
2018-12-29T06:04:03.357Z,103395.94
2018-12-29T06:05:03.659Z,103395.70
2018-12-29T06:06:03.975Z,103395.70
2018-12-29T06:07:04.258Z,103394.70
2018-12-29T06:08:04.542Z,103394.10
2018-12-29T06:09:04.995Z,103394.17
2018-12-29T06:10:05.361Z,103394.56
2018-12-29T06:11:05.669Z,103394.33
2018-12-29T06:12:06.083Z,103394.50
2018-12-29T06:13:07.016Z,103394.40
2018-12-29T06:14:07.263Z,103393.63
2018-12-29T06:15:07.996Z,103393.63
2018-12-29T06:16:08.340Z,103393.63
2018-12-29T06:17:08.565Z,103393.53
2018-12-29T06:18:08.955Z,103393.80
2018-12-29T06:19:09.647Z,103394.03
2018-12-29T06:19:18.569Z,103397.11
2018-12-29T06:20:19.813Z,103396.34
2018-12-29T06:21:20.084Z,103396.67
2018-12-29T06:22:20.314Z,103397.02
2018-12-29T06:23:20.574Z,103397.45
2018-12-29T06:24:20.799Z,103397.84
2018-12-29T06:25:21.043Z,103397.84
2018-12-29T06:26:21.686Z,103398.28
2018-12-29T06:27:20.924Z,103399.05
2018-12-29T06:28:22.201Z,103399.81
2018-12-29T06:29:22.536Z,103400.64
2018-12-29T06:30:22.861Z,103401.41
2018-12-29T06:31:23.308Z,103402.68
2018-12-29T06:32:23.733Z,103403.34
2018-12-29T06:33:22.906Z,103405.01
2018-12-29T06:34:24.225Z,103406.27
2018-12-29T06:35:23.559Z,103407.34
2018-12-29T06:36:24.840Z,103408.70
2018-12-29T06:37:25.251Z,103410.38
2018-12-29T06:38:25.558Z,103412.14
2018-12-29T06:39:25.988Z,103413.91
2018-12-29T06:40:26.308Z,103415.07
2018-12-29T06:41:26.593Z,103416.73
2018-12-29T06:42:26.897Z,103418.50
2018-12-29T06:43:27.171Z,103420.56
2018-12-29T06:44:27.402Z,103422.00
2018-12-29T06:45:28.115Z,103423.42
2018-12-29T06:46:34.695Z,103425.19
2018-12-29T06:47:28.266Z,103427.19
2018-12-29T06:48:29.545Z,103428.52
2018-12-29T06:49:29.891Z,103430.02
2018-12-29T06:50:30.640Z,103431.19
2018-12-29T06:51:30.934Z,103432.25
2018-12-29T06:52:31.271Z,103433.75
2018-12-29T06:53:31.545Z,103435.24
2018-12-29T06:54:32.125Z,103436.51
2018-12-29T06:55:32.912Z,103437.91
2018-12-29T06:56:32.105Z,103439.23
2018-12-29T06:57:33.557Z,103440.17
2018-12-29T06:58:33.876Z,103441.34
2018-12-29T06:59:34.333Z,103442.83
2018-12-29T07:00:34.536Z,103444.00
2018-12-29T07:01:34.777Z,103444.90
2018-12-29T07:02:35.034Z,103446.16
2018-12-29T07:03:35.349Z,103447.92
2018-12-29T07:04:35.716Z,103449.49
2018-12-29T07:05:36.056Z,103451.09
2018-12-29T07:06:36.334Z,103452.95
2018-12-29T07:07:36.561Z,103453.86
2018-12-29T07:07:44.608Z,103484.98
2018-12-29T07:08:45.812Z,103484.38
2018-12-29T07:09:46.365Z,103484.05
2018-12-29T07:10:46.890Z,103483.72
2018-12-29T07:11:48.434Z,103483.65
2018-12-29T07:12:47.730Z,103484.05
2018-12-29T07:13:48.014Z,103484.22
2018-12-29T07:14:48.553Z,103483.98
2018-12-29T07:15:49.155Z,103483.42
2018-12-29T07:16:49.500Z,103482.52
2018-12-29T07:17:49.709Z,103481.69
2018-12-29T07:18:50.005Z,103481.03
2018-12-29T07:19:50.416Z,103479.76
2018-12-29T07:20:51.891Z,103478.09
2018-12-29T07:21:51.167Z,103477.23
2018-12-29T07:22:51.360Z,103476.16
2018-12-29T07:23:51.638Z,103475.62
2018-12-29T07:24:51.976Z,103475.39
2018-12-29T07:25:52.261Z,103475.13
2018-12-29T07:26:52.485Z,103474.19
2018-12-29T07:27:52.887Z,103474.09
2018-12-29T07:28:53.162Z,103473.69
2018-12-29T07:29:53.557Z,103474.15
2018-12-29T07:30:54.028Z,103474.22
2018-12-29T07:31:54.390Z,103474.72
2018-12-29T07:32:54.720Z,103474.55
2018-12-29T07:33:54.903Z,103474.64
2018-12-29T07:34:55.529Z,103474.48
2018-12-29T07:35:55.775Z,103475.05
2018-12-29T07:36:56.019Z,103475.31
2018-12-29T07:37:56.021Z,103475.91
2018-12-29T07:38:56.925Z,103476.52
2018-12-29T07:39:57.262Z,103476.75
2018-12-29T07:40:57.622Z,103477.35
2018-12-29T07:41:57.875Z,103478.12
2018-12-29T07:42:59.125Z,103479.45
2018-12-29T07:43:58.369Z,103480.66
2018-12-29T07:44:58.594Z,103481.16
2018-12-29T07:45:58.929Z,103482.19
2018-12-29T07:46:58.196Z,103482.26
2018-12-29T07:47:59.517Z,103482.80
2018-12-29T07:48:59.791Z,103482.80
2018-12-29T07:50:01.098Z,103482.33
2018-12-29T07:50:59.431Z,103481.77
2018-12-29T07:52:00.745Z,103481.60
2018-12-29T07:53:01.050Z,103481.77
2018-12-29T07:54:01.477Z,103481.64
2018-12-29T07:54:09.697Z,103479.73
2018-12-29T07:55:11.727Z,103479.47
2018-12-29T07:56:11.984Z,103479.63
2018-12-29T07:57:12.918Z,103479.73
2018-12-29T07:58:13.241Z,103479.80
2018-12-29T07:59:13.635Z,103480.23
2018-12-29T08:00:14.051Z,103480.44
2018-12-29T08:01:14.406Z,103480.50
2018-12-29T08:02:14.663Z,103480.77
2018-12-29T08:03:14.903Z,103481.27
2018-12-29T08:04:15.130Z,103481.11
2018-12-29T08:05:15.485Z,103481.20
2018-12-29T08:06:16.028Z,103481.30
2018-12-29T08:07:16.380Z,103480.98
2018-12-29T08:08:16.896Z,103481.08
2018-12-29T08:09:17.379Z,103480.81
2018-12-29T08:10:17.693Z,103481.34
2018-12-29T08:11:17.104Z,103481.28
2018-12-29T08:12:18.442Z,103480.52
2018-12-29T08:13:18.794Z,103480.48
2018-12-29T08:14:19.087Z,103480.42
2018-12-29T08:15:19.356Z,103480.26
2018-12-29T08:16:19.647Z,103479.86
2018-12-29T08:17:19.890Z,103479.40
2018-12-29T08:18:20.127Z,103479.53
2018-12-29T08:19:20.387Z,103478.64
2018-12-29T08:20:20.649Z,103478.14
2018-12-29T08:21:20.899Z,103478.41
2018-12-29T08:22:21.287Z,103478.45
2018-12-29T08:23:21.656Z,103478.45
2018-12-29T08:24:21.907Z,103478.11
2018-12-29T08:25:22.264Z,103478.11
2018-12-29T08:26:22.628Z,103477.28
2018-12-29T08:27:23.095Z,103476.78
2018-12-29T08:28:23.433Z,103476.55
2018-12-29T08:29:23.602Z,103475.78
2018-12-29T08:30:24.099Z,103474.88
2018-12-29T08:31:24.381Z,103474.33
2018-12-29T08:32:24.777Z,103473.52
2018-12-29T08:33:25.430Z,103472.23
2018-12-29T08:34:25.804Z,103471.33
2018-12-29T08:35:26.195Z,103470.44
2018-12-29T08:36:26.501Z,103469.27
2018-12-29T08:37:26.806Z,103468.64
2018-12-29T08:37:34.906Z,103462.76
2018-12-29T08:38:36.177Z,103462.16
2018-12-29T08:39:36.567Z,103461.99
2018-12-29T08:40:36.828Z,103461.59
2018-12-29T08:41:37.179Z,103462.42
2018-12-29T08:42:37.685Z,103462.16
2018-12-29T08:43:37.927Z,103462.48
2018-12-29T08:44:38.173Z,103462.32
2018-12-29T08:45:38.551Z,103462.32
2018-12-29T08:46:38.968Z,103462.22
2018-12-29T08:47:39.268Z,103462.45
2018-12-29T08:48:39.553Z,103462.35
2018-12-29T08:49:41.320Z,103462.92
2018-12-29T08:50:39.070Z,103462.91
2018-12-29T08:51:40.431Z,103463.15
2018-12-29T08:52:40.789Z,103463.58
2018-12-29T08:53:41.164Z,103463.31
2018-12-29T08:54:41.458Z,103462.98
2018-12-29T08:55:41.852Z,103462.65
2018-12-29T08:56:42.156Z,103461.75
2018-12-29T08:57:42.382Z,103460.81
2018-12-29T08:58:42.734Z,103461.09
2018-12-29T08:59:42.986Z,103460.45
2018-12-29T09:00:43.200Z,103460.16
2018-12-29T09:01:43.534Z,103460.03
2018-12-29T09:02:43.873Z,103460.00
2018-12-29T09:03:44.143Z,103460.03
2018-12-29T09:04:44.580Z,103458.97
2018-12-29T09:05:45.054Z,103458.77
2018-12-29T09:06:45.399Z,103458.58
2018-12-29T09:07:45.983Z,103458.02
2018-12-29T09:08:46.326Z,103459.02
2018-12-29T09:09:46.599Z,103459.05
2018-12-29T09:10:46.881Z,103458.77
2018-12-29T09:11:47.147Z,103458.77
2018-12-29T09:12:47.565Z,103458.47
2018-12-29T09:13:47.839Z,103458.17
2018-12-29T09:14:48.111Z,103458.11
2018-12-29T09:15:48.385Z,103458.08
2018-12-29T09:16:48.714Z,103457.72
2018-12-29T09:17:49.007Z,103456.72
2018-12-29T09:18:49.818Z,103456.59
2018-12-29T09:19:48.507Z,103456.85
2018-12-29T09:20:49.529Z,103457.16
2018-12-29T09:21:49.972Z,103456.82
2018-12-29T09:22:50.289Z,103457.86
2018-12-29T09:23:00.334Z,103464.81
2018-12-29T09:24:01.609Z,103464.72
2018-12-29T09:25:02.340Z,103464.98
2018-12-29T09:26:04.595Z,103464.75
2018-12-29T09:27:02.277Z,103464.42
2018-12-29T09:28:03.586Z,103463.69
2018-12-29T09:29:04.099Z,103463.35
2018-12-29T09:30:04.379Z,103462.55
2018-12-29T09:31:04.704Z,103461.82
2018-12-29T09:32:05.180Z,103461.36
2018-12-29T09:33:05.593Z,103460.89
2018-12-29T09:34:05.843Z,103460.13
2018-12-29T09:35:06.120Z,103460.16
2018-12-29T09:36:06.450Z,103460.26
2018-12-29T09:37:06.919Z,103460.26
2018-12-29T09:38:06.223Z,103460.63
2018-12-29T09:39:07.493Z,103461.80
2018-12-29T09:40:07.785Z,103462.23
2018-12-29T09:41:08.610Z,103462.99
2018-12-29T09:42:08.889Z,103463.42
2018-12-29T09:43:09.156Z,103463.86
2018-12-29T09:44:09.678Z,103464.19
2018-12-29T09:45:09.953Z,103464.46
2018-12-29T09:46:09.499Z,103465.46
2018-12-29T09:47:10.983Z,103466.33
2018-12-29T09:48:11.549Z,103466.27
2018-12-29T09:49:11.812Z,103466.27
2018-12-29T09:50:12.246Z,103466.77
2018-12-29T09:51:12.575Z,103466.86
2018-12-29T09:52:13.152Z,103467.23
2018-12-29T09:53:12.597Z,103467.77
2018-12-29T09:54:13.867Z,103468.47
2018-12-29T09:55:14.119Z,103469.14
2018-12-29T09:56:14.453Z,103469.56
2018-12-29T09:57:14.844Z,103469.50
2018-12-29T09:58:15.144Z,103469.30
2018-12-29T09:59:15.426Z,103469.17
2018-12-29T10:00:15.937Z,103469.60
2018-12-29T10:01:16.258Z,103470.04
2018-12-29T10:02:16.779Z,103470.14
2018-12-29T10:03:17.240Z,103470.41
2018-12-29T10:04:17.531Z,103470.44
2018-12-29T10:05:18.107Z,103470.44
2018-12-29T10:06:18.818Z,103470.14
2018-12-29T10:07:19.259Z,103469.91
2018-12-29T10:08:19.616Z,103469.67
2018-12-29T10:09:20.917Z,103469.38
2018-12-29T10:09:30.875Z,103461.77
2018-12-29T10:10:30.169Z,103461.17
2018-12-29T10:11:31.073Z,103462.04
2018-12-29T10:12:31.474Z,103462.20
2018-12-29T10:13:31.759Z,103462.41
2018-12-29T10:14:32.022Z,103463.11
2018-12-29T10:15:32.347Z,103463.30
2018-12-29T10:16:32.618Z,103463.00
2018-12-29T10:17:33.051Z,103463.34
2018-12-29T10:18:33.640Z,103463.14
2018-12-29T10:19:33.947Z,103463.34
2018-12-29T10:20:34.216Z,103464.11
2018-12-29T10:21:34.626Z,103464.30
2018-12-29T10:22:34.907Z,103464.44
2018-12-29T10:23:35.191Z,103464.53
2018-12-29T10:24:35.521Z,103464.73
2018-12-29T10:25:35.835Z,103464.94
2018-12-29T10:26:36.286Z,103465.41
2018-12-29T10:27:36.714Z,103465.00
2018-12-29T10:28:37.045Z,103465.37
2018-12-29T10:29:37.545Z,103465.23
2018-12-29T10:30:37.839Z,103465.00
2018-12-29T10:31:38.170Z,103465.03
2018-12-29T10:32:38.458Z,103464.59
2018-12-29T10:33:38.778Z,103463.80
2018-12-29T10:34:39.161Z,103462.73
2018-12-29T10:35:39.550Z,103461.86
2018-12-29T10:36:40.155Z,103460.39
2018-12-29T10:37:40.439Z,103459.16
2018-12-29T10:38:40.725Z,103458.09
2018-12-29T10:39:41.465Z,103456.25
2018-12-29T10:40:41.734Z,103454.52
2018-12-29T10:41:42.036Z,103452.38
2018-12-29T10:42:42.390Z,103449.67
2018-12-29T10:43:43.278Z,103447.59
2018-12-29T10:44:43.497Z,103444.86
2018-12-29T10:45:43.784Z,103442.23
2018-12-29T10:46:44.158Z,103439.42
2018-12-29T10:47:44.638Z,103436.52
2018-12-29T10:48:44.934Z,103433.44
2018-12-29T10:49:45.271Z,103430.80
2018-12-29T10:50:45.583Z,103428.10
2018-12-29T10:51:46.019Z,103425.29
2018-12-29T10:52:45.429Z,103422.25
2018-12-29T10:53:47.137Z,103420.11
2018-12-29T10:53:58.229Z,103378.53
2018-12-29T10:54:59.490Z,103377.94
2018-12-29T10:55:59.800Z,103378.53
2018-12-29T10:57:00.486Z,103378.47
2018-12-29T10:58:00.845Z,103378.03
2018-12-29T10:59:01.185Z,103378.16
2018-12-29T11:00:01.486Z,103377.39
2018-12-29T11:01:01.764Z,103376.59
2018-12-29T11:02:02.047Z,103375.25
2018-12-29T11:03:02.127Z,103374.69
2018-12-29T11:04:02.379Z,103374.35
2018-12-29T11:05:02.802Z,103373.45
2018-12-29T11:06:03.269Z,103372.28
2018-12-29T11:07:03.660Z,103370.51
2018-12-29T11:08:03.907Z,103369.84
2018-12-29T11:09:04.187Z,103368.23
2018-12-29T11:10:04.482Z,103366.73
2018-12-29T11:11:05.046Z,103365.23
2018-12-29T11:12:05.324Z,103362.90
2018-12-29T11:13:05.578Z,103361.27
2018-12-29T11:14:06.250Z,103358.85
2018-12-29T11:15:06.669Z,103356.95
2018-12-29T11:16:07.138Z,103354.88